Time;durP1;ratioP1;P1;durP2;ratioP2;P2;SDS_P1;SDS_P2;PMS_P1;PMS_P2;Temp;Humidity;BMP_temperature;BMP_pressure;BME280_temperature;BME280_humidity;BME280_pressure;Samples;Min_cycle;Max_cycle;Signal;HPM_P1;HPM_P2
2021/10/13 00:00:58;;;;;;;6.55;3.20;;;15.20;98.70;;;;;;5054111;28;20056;-59
2021/10/13 00:03:26;;;;;;;5.72;3.75;;;15.20;98.70;;;;;;5054264;28;20045;-58
2021/10/13 00:05:53;;;;;;;7.07;3.90;;;15.20;98.60;;;;;;5054197;28;20513;-59
2021/10/13 00:08:21;;;;;;;5.25;2.80;;;15.20;98.70;;;;;;5054306;28;20136;-59
2021/10/13 00:10:49;;;;;;;7.25;3.58;;;15.30;98.70;;;;;;5037547;28;20064;-59
2021/10/13 00:13:16;;;;;;;6.30;3.70;;;15.30;98.70;;;;;;5037685;28;20037;-59
2021/10/13 00:15:45;;;;;;;7.68;3.58;;;15.30;98.70;;;;;;5055370;28;20167;-59
2021/10/13 00:18:13;;;;;;;10.70;3.45;;;15.30;98.70;;;;;;5053955;28;20083;-59
2021/10/13 00:20:40;;;;;;;7.43;3.97;;;15.30;98.70;;;;;;5055232;28;20061;-59
2021/10/13 00:23:10;;;;;;;9.93;4.20;;;15.30;98.60;;;;;;5037176;28;20560;-59
2021/10/13 00:25:38;;;;;;;6.40;3.47;;;15.30;98.60;;;;;;5037421;28;20525;-59
2021/10/13 00:28:06;;;;;;;5.50;3.85;;;15.20;98.60;;;;;;5054036;28;20064;-59
2021/10/13 00:30:33;;;;;;;6.18;3.45;;;15.20;98.70;;;;;;5053819;28;20513;-60
2021/10/13 00:33:01;;;;;;;5.72;3.00;;;15.20;98.70;;;;;;5053884;28;20048;-59
2021/10/13 00:35:29;;;;;;;5.45;3.75;;;15.20;98.80;;;;;;5053650;28;20055;-59
2021/10/13 00:37:56;;;;;;;4.88;3.20;;;15.10;98.80;;;;;;5053502;28;20145;-60
2021/10/13 00:40:24;;;;;;;5.55;3.30;;;15.10;98.80;;;;;;5053581;28;20399;-58
2021/10/13 00:42:52;;;;;;;5.18;3.33;;;15.10;98.80;;;;;;5053708;28;20087;-59
2021/10/13 00:45:20;;;;;;;7.00;4.25;;;15.10;98.90;;;;;;5053574;28;20429;-59
2021/10/13 00:47:47;;;;;;;6.00;3.58;;;15.10;98.90;;;;;;5054812;28;20453;-59
2021/10/13 00:50:15;;;;;;;5.82;3.15;;;15.00;98.60;;;;;;5053459;28;20510;-59
2021/10/13 00:52:43;;;;;;;4.32;2.70;;;15.00;98.90;;;;;;5036879;28;20455;-59
2021/10/13 00:55:17;;;;;;;4.90;2.85;;;15.00;98.90;;;;;;5036647;28;20049;-60
2021/10/13 00:57:46;;;;;;;8.63;3.30;;;15.00;98.90;;;;;;5036562;28;20041;-59
2021/10/13 01:00:14;;;;;;;5.20;3.15;;;15.00;98.80;;;;;;5035831;28;20064;-59
2021/10/13 01:03:11;;;;;;;5.13;3.08;;;15.00;98.80;;;;;;5054588;28;20447;-59
2021/10/13 01:06:05;;;;;;;7.55;3.60;;;15.00;98.70;;;;;;5053289;28;20037;-59
2021/10/13 01:09:17;;;;;;;5.72;3.40;;;14.90;98.60;;;;;;5053213;28;20574;-59
2021/10/13 01:12:16;;;;;;;3.45;2.30;;;15.00;98.60;;;;;;5032905;28;20169;-59
2021/10/13 01:15:07;;;;;;;6.22;3.15;;;15.00;98.50;;;;;;5053123;28;20075;-59
2021/10/13 01:17:44;;;;;;;4.85;2.85;;;15.00;98.50;;;;;;5036670;28;20049;-59
2021/10/13 01:20:30;;;;;;;5.20;3.10;;;15.00;98.30;;;;;;5054139;28;20044;-59
2021/10/13 01:22:57;;;;;;;7.93;2.97;;;15.00;98.40;;;;;;5052799;28;20045;-59
2021/10/13 01:25:45;;;;;;;5.03;3.17;;;15.10;98.40;;;;;;5052733;28;20417;-59
2021/10/13 01:28:18;;;;;;;5.32;3.15;;;15.00;98.30;;;;;;5052789;28;20060;-59
2021/10/13 01:30:58;;;;;;;4.57;2.83;;;15.00;98.40;;;;;;5036429;28;20045;-59
2021/10/13 01:33:42;;;;;;;5.13;3.45;;;15.00;98.40;;;;;;5052807;28;20076;-61
2021/10/13 01:36:13;;;;;;;6.18;3.22;;;15.00;98.40;;;;;;5053965;28;20073;-59
2021/10/13 01:38:49;;;;;;;7.85;3.28;;;15.00;98.30;;;;;;5036266;28;20112;-59
2021/10/13 01:41:20;;;;;;;5.38;3.05;;;15.00;98.30;;;;;;5052936;28;20064;-59
2021/10/13 01:43:51;;;;;;;6.18;3.97;;;15.00;98.30;;;;;;5036199;28;20056;-59
2021/10/13 01:46:23;;;;;;;4.45;2.97;;;15.00;98.30;;;;;;5035914;28;20399;-59
2021/10/13 01:48:52;;;;;;;4.20;2.55;;;14.90;98.30;;;;;;5052753;28;20053;-59
2021/10/13 01:51:20;;;;;;;4.18;2.78;;;14.90;98.40;;;;;;5036003;28;20076;-59
2021/10/13 01:53:48;;;;;;;6.20;3.00;;;14.90;98.30;;;;;;5052613;28;20060;-59
2021/10/13 01:56:18;;;;;;;5.25;3.65;;;14.90;98.30;;;;;;5036239;28;20183;-59
2021/10/13 01:58:47;;;;;;;7.63;3.70;;;15.00;98.30;;;;;;5052250;28;20059;-59
2021/10/13 02:01:17;;;;;;;5.20;2.75;;;15.00;98.30;;;;;;5036132;28;20045;-59
2021/10/13 02:03:48;;;;;;;7.22;3.40;;;14.90;98.10;;;;;;5036008;28;20044;-59
2021/10/13 02:06:29;;;;;;;8.30;3.53;;;15.00;98.20;;;;;;5052194;28;20072;-59
2021/10/13 02:08:59;;;;;;;5.35;3.15;;;15.00;98.20;;;;;;5035491;28;20044;-59
2021/10/13 02:11:31;;;;;;;4.70;3.20;;;15.00;98.20;;;;;;5035343;28;20065;-59
2021/10/13 02:14:07;;;;;;;4.78;2.92;;;15.00;98.20;;;;;;5035774;28;20494;-59
2021/10/13 02:16:36;;;;;;;6.13;3.22;;;14.90;98.20;;;;;;5053347;28;20071;-59
2021/10/13 02:19:06;;;;;;;4.47;2.92;;;14.90;98.30;;;;;;5052248;28;20468;-59
2021/10/13 02:21:38;;;;;;;6.97;3.83;;;14.90;98.30;;;;;;5052287;28;20053;-59
2021/10/13 02:24:08;;;;;;;5.10;3.35;;;14.90;98.30;;;;;;5052126;28;20072;-59
2021/10/13 02:26:43;;;;;;;5.68;2.83;;;14.80;98.30;;;;;;5019480;28;20057;-59
2021/10/13 02:29:16;;;;;;;6.18;3.53;;;14.80;98.40;;;;;;5053145;28;20041;-59
2021/10/13 02:31:45;;;;;;;5.07;3.08;;;14.80;98.50;;;;;;5052265;28;20045;-59
2021/10/13 02:34:13;;;;;;;6.38;3.60;;;14.70;98.40;;;;;;5052187;28;20051;-59
2021/10/13 02:36:41;;;;;;;5.38;3.95;;;14.70;98.50;;;;;;5052052;28;20041;-59
2021/10/13 02:39:09;;;;;;;6.93;4.20;;;14.70;98.50;;;;;;5052076;28;20128;-59
2021/10/13 02:41:37;;;;;;;7.15;4.45;;;14.60;98.50;;;;;;5053208;28;20044;-59
2021/10/13 02:44:07;;;;;;;5.15;2.90;;;14.60;98.50;;;;;;5018941;28;20040;-59
2021/10/13 02:46:41;;;;;;;4.85;3.33;;;14.60;98.50;;;;;;5051855;28;20045;-59
2021/10/13 02:49:20;;;;;;;5.28;3.05;;;14.60;98.60;;;;;;5051749;28;20158;-59
2021/10/13 02:52:01;;;;;;;5.10;3.05;;;14.60;98.50;;;;;;5051939;28;20116;-59
2021/10/13 02:54:43;;;;;;;4.93;3.25;;;14.50;98.60;;;;;;5052035;28;20099;-59
2021/10/13 02:57:12;;;;;;;5.40;2.92;;;14.50;98.60;;;;;;5053066;28;20044;-59
2021/10/13 02:59:47;;;;;;;4.70;3.05;;;14.50;98.70;;;;;;5051657;28;20156;-59
2021/10/13 03:02:25;;;;;;;6.72;3.13;;;14.50;98.70;;;;;;5053056;28;20091;-59
2021/10/13 03:04:56;;;;;;;5.47;2.92;;;14.50;98.70;;;;;;5052878;28;20041;-59
2021/10/13 03:07:28;;;;;;;5.53;2.63;;;14.50;98.60;;;;;;5035229;28;20052;-58
2021/10/13 03:09:59;;;;;;;5.90;2.95;;;14.60;98.60;;;;;;5035216;28;20063;-59
2021/10/13 03:12:47;;;;;;;5.30;2.97;;;14.60;98.50;;;;;;5052752;28;20119;-59
2021/10/13 03:15:17;;;;;;;7.25;3.08;;;14.60;98.50;;;;;;5052823;28;20495;-59
2021/10/13 03:17:51;;;;;;;6.45;3.38;;;14.60;98.50;;;;;;5051300;28;20480;-59
2021/10/13 03:20:20;;;;;;;5.60;2.92;;;14.60;98.60;;;;;;5034947;28;20045;-59
2021/10/13 03:22:50;;;;;;;5.43;3.13;;;14.50;98.60;;;;;;5051812;28;20052;-59
2021/10/13 03:25:28;;;;;;;4.57;2.78;;;14.50;98.60;;;;;;5056249;28;20047;-59
2021/10/13 03:27:58;;;;;;;5.88;3.22;;;14.50;98.60;;;;;;5055118;28;20569;-58
2021/10/13 03:30:25;;;;;;;6.30;3.42;;;14.50;98.60;;;;;;5038819;28;20041;-58
2021/10/13 03:32:53;;;;;;;2.92;2.45;;;14.50;98.60;;;;;;5054972;28;20498;-59
2021/10/13 03:35:31;;;;;;;4.25;2.92;;;14.50;98.70;;;;;;5055103;28;20403;-59
2021/10/13 03:38:02;;;;;;;5.95;2.88;;;14.40;98.70;;;;;;5054589;28;20052;-59
2021/10/13 03:40:32;;;;;;;5.63;3.28;;;14.40;98.60;;;;;;5038161;28;20139;-59
2021/10/13 03:43:00;;;;;;;4.20;3.08;;;14.40;98.60;;;;;;5054857;28;20045;-59
2021/10/13 03:45:27;;;;;;;3.58;2.47;;;14.40;98.60;;;;;;5054752;28;20056;-59
2021/10/13 03:47:56;;;;;;;5.85;2.53;;;14.40;98.90;;;;;;5054727;28;20143;-59
2021/10/13 03:50:23;;;;;;;4.85;2.90;;;14.40;98.70;;;;;;5054759;28;20411;-59
2021/10/13 03:52:51;;;;;;;7.05;2.92;;;14.40;98.70;;;;;;5054662;28;20685;-59
2021/10/13 03:55:20;;;;;;;5.97;3.42;;;14.40;98.50;;;;;;5054594;28;20046;-59
2021/10/13 03:57:48;;;;;;;5.65;3.10;;;14.40;98.50;;;;;;5038117;28;20073;-59
2021/10/13 04:00:19;;;;;;;9.15;2.70;;;14.50;98.40;;;;;;5054269;28;20045;-59
2021/10/13 04:02:47;;;;;;;5.50;2.88;;;14.50;98.20;;;;;;5021784;28;20056;-59
2021/10/13 04:05:15;;;;;;;4.97;2.75;;;14.50;98.20;;;;;;5037939;28;20044;-59
2021/10/13 04:07:43;;;;;;;6.90;3.50;;;14.50;98.30;;;;;;5037765;28;20052;-59
2021/10/13 04:10:14;;;;;;;4.95;2.90;;;14.50;98.30;;;;;;5054192;28;20049;-59
2021/10/13 04:12:42;;;;;;;4.28;2.55;;;14.50;98.30;;;;;;5054338;28;20083;-59
2021/10/13 04:15:11;;;;;;;5.28;2.53;;;14.50;98.30;;;;;;5054150;28;20045;-59
2021/10/13 04:17:39;;;;;;;4.10;3.00;;;14.40;98.40;;;;;;5020602;28;20056;-59
2021/10/13 04:20:10;;;;;;;6.43;3.13;;;14.40;98.50;;;;;;5055458;28;20435;-60
2021/10/13 04:22:38;;;;;;;4.25;2.58;;;14.40;98.60;;;;;;5061887;28;20037;-60
2021/10/13 04:25:07;;;;;;;4.30;2.65;;;14.40;98.60;;;;;;5055320;28;20087;-59
2021/10/13 04:27:35;;;;;;;4.45;3.05;;;14.40;98.70;;;;;;5050218;28;20059;-59
2021/10/13 04:30:05;;;;;;;5.57;2.55;;;14.40;98.70;;;;;;5051633;28;20045;-59
2021/10/13 04:32:32;;;;;;;4.10;2.70;;;14.40;98.70;;;;;;5061720;28;20045;-60
2021/10/13 04:35:00;;;;;;;4.28;2.70;;;14.40;98.70;;;;;;5052788;28;20426;-59
2021/10/13 04:37:28;;;;;;;7.28;3.10;;;14.40;98.70;;;;;;5053759;28;20442;-59
2021/10/13 04:39:55;;;;;;;6.13;2.90;;;14.40;98.80;;;;;;5054744;28;20079;-59
2021/10/13 04:42:23;;;;;;;4.07;2.55;;;14.40;98.90;;;;;;5054740;28;20037;-59
2021/10/13 04:44:51;;;;;;;5.93;2.85;;;14.40;98.90;;;;;;5053704;28;20041;-59
2021/10/13 04:47:18;;;;;;;5.75;3.10;;;14.40;98.90;;;;;;5037375;28;20095;-59
2021/10/13 04:49:46;;;;;;;4.38;2.85;;;14.40;99.00;;;;;;5053056;28;20056;-59
2021/10/13 04:52:13;;;;;;;5.53;2.90;;;14.30;99.00;;;;;;5053260;28;20510;-59
2021/10/13 04:54:41;;;;;;;4.10;2.70;;;14.30;98.90;;;;;;5053401;28;20048;-59
2021/10/13 04:57:09;;;;;;;4.97;3.00;;;14.30;99.20;;;;;;5053302;28;20044;-59
2021/10/13 04:59:37;;;;;;;4.57;2.50;;;14.30;99.50;;;;;;5036484;28;20053;-59
2021/10/13 05:02:04;;;;;;;4.28;2.92;;;14.30;99.30;;;;;;5052965;28;20047;-61
2021/10/13 05:04:32;;;;;;;5.78;3.22;;;14.30;99.30;;;;;;5054524;28;20080;-59
2021/10/13 05:07:01;;;;;;;6.63;2.60;;;14.30;99.20;;;;;;5053317;28;20128;-59
2021/10/13 05:09:29;;;;;;;6.35;2.70;;;14.20;99.10;;;;;;5036784;28;20052;-59
2021/10/13 05:11:57;;;;;;;5.30;2.83;;;14.30;99.10;;;;;;5054127;28;20063;-59
2021/10/13 05:14:24;;;;;;;5.43;3.28;;;14.30;99.10;;;;;;5036534;28;20049;-59
2021/10/13 05:16:52;;;;;;;4.10;2.75;;;14.40;99.00;;;;;;5052837;28;20224;-59
2021/10/13 05:19:19;;;;;;;6.50;2.85;;;14.50;99.00;;;;;;5052584;28;20048;-59
2021/10/13 05:21:47;;;;;;;5.10;2.75;;;14.60;98.80;;;;;;5053877;28;20514;-59
2021/10/13 05:24:15;;;;;;;3.33;2.30;;;14.80;98.60;;;;;;5052762;28;20053;-59
2021/10/13 05:26:42;;;;;;;6.93;3.15;;;15.00;98.20;;;;;;5053908;28;20048;-59
2021/10/13 05:29:10;;;;;;;4.28;2.13;;;15.10;98.00;;;;;;5054047;28;20494;-60
2021/10/13 05:31:38;;;;;;;4.25;3.03;;;15.30;97.80;;;;;;5052362;28;20052;-59
2021/10/13 05:34:06;;;;;;;5.00;2.47;;;15.60;97.50;;;;;;5053820;28;20044;-59
2021/10/13 05:36:33;;;;;;;4.38;2.85;;;15.80;97.20;;;;;;5052987;28;20127;-59
2021/10/13 05:39:01;;;;;;;5.18;3.08;;;16.00;96.90;;;;;;5052261;28;20052;-59
2021/10/13 05:41:28;;;;;;;4.75;3.10;;;16.30;96.40;;;;;;5051730;28;20053;-59
2021/10/13 05:43:56;;;;;;;4.13;2.95;;;16.40;96.10;;;;;;5053516;28;20185;-59
2021/10/13 05:46:23;;;;;;;4.47;2.28;;;16.60;96.00;;;;;;5053085;28;20498;-59
2021/10/13 05:48:51;;;;;;;4.18;2.08;;;16.80;95.60;;;;;;5052258;28;20581;-59
2021/10/13 05:51:19;;;;;;;5.45;2.72;;;17.00;95.00;;;;;;5052081;28;20041;-59
2021/10/13 05:53:46;;;;;;;4.72;2.50;;;17.00;94.80;;;;;;5052354;28;20437;-59
2021/10/13 05:56:14;;;;;;;4.65;2.13;;;17.00;94.60;;;;;;5051968;28;20045;-59
2021/10/13 05:58:42;;;;;;;4.82;2.05;;;16.90;94.80;;;;;;5052066;28;20037;-59
2021/10/13 06:01:10;;;;;;;4.30;2.72;;;16.70;94.90;;;;;;5035496;28;20056;-59
2021/10/13 06:03:37;;;;;;;4.43;2.67;;;16.60;95.10;;;;;;5052183;28;20108;-59
2021/10/13 06:06:05;;;;;;;6.63;3.35;;;16.50;95.40;;;;;;5035566;28;20099;-59
2021/10/13 06:08:32;;;;;;;4.70;2.55;;;16.40;95.50;;;;;;5051918;28;20368;-59
2021/10/13 06:11:00;;;;;;;5.00;2.20;;;16.40;95.60;;;;;;5052019;28;20057;-59
2021/10/13 06:13:28;;;;;;;4.03;2.55;;;16.40;95.60;;;;;;5053036;28;20043;-59
2021/10/13 06:15:56;;;;;;;6.78;2.78;;;16.40;95.60;;;;;;5051814;28;20525;-60
2021/10/13 06:18:23;;;;;;;4.53;2.50;;;16.60;95.70;;;;;;5051877;28;20041;-59
2021/10/13 06:20:51;;;;;;;4.47;2.10;;;16.60;95.60;;;;;;5053110;28;20052;-59
2021/10/13 06:23:18;;;;;;;3.55;2.55;;;16.70;95.40;;;;;;5052056;28;20095;-59
2021/10/13 06:25:46;;;;;;;5.72;2.35;;;16.70;95.70;;;;;;5053144;28;20045;-59
2021/10/13 06:28:13;;;;;;;3.88;2.22;;;16.80;95.70;;;;;;5052000;28;20372;-59
2021/10/13 06:30:43;;;;;;;4.35;2.65;;;17.30;95.70;;;;;;5053128;28;20227;-59
2021/10/13 06:33:11;;;;;;;4.57;2.35;;;17.90;95.00;;;;;;5052132;28;20041;-59
2021/10/13 06:35:38;;;;;;;3.67;2.63;;;18.70;94.10;;;;;;5019485;28;20417;-59
2021/10/13 06:38:06;;;;;;;3.53;2.30;;;19.10;93.40;;;;;;5035555;28;20079;-59
2021/10/13 06:40:33;;;;;;;6.13;2.50;;;19.10;93.20;;;;;;5035524;28;20506;-59
2021/10/13 06:43:02;;;;;;;6.50;3.03;;;19.00;93.30;;;;;;5053158;28;20044;-59
2021/10/13 06:45:35;;;;;;;6.07;2.80;;;18.70;93.60;;;;;;5051899;28;20498;-59
2021/10/13 06:48:04;;;;;;;6.15;2.10;;;18.50;93.90;;;;;;5051824;28;20053;-59
2021/10/13 06:50:33;;;;;;;5.10;2.50;;;18.20;94.30;;;;;;5035588;28;20092;-59
2021/10/13 06:53:02;;;;;;;6.28;2.95;;;18.00;94.70;;;;;;5051872;28;20041;-59
2021/10/13 06:55:29;;;;;;;4.40;2.45;;;17.80;95.20;;;;;;5051811;28;20380;-59
2021/10/13 06:57:57;;;;;;;6.13;3.10;;;17.60;95.40;;;;;;5051940;28;20132;-59
2021/10/13 07:00:25;;;;;;;5.28;2.83;;;17.50;95.70;;;;;;5039127;28;20049;-59
2021/10/13 07:02:53;;;;;;;3.95;2.65;;;17.50;95.90;;;;;;5055680;28;20072;-59
2021/10/13 07:05:21;;;;;;;5.45;2.60;;;17.50;96.00;;;;;;5055508;28;20501;-59
2021/10/13 07:07:49;;;;;;;4.10;2.15;;;17.50;96.00;;;;;;5055481;28;20041;-59
2021/10/13 07:10:19;;;;;;;6.22;2.55;;;17.50;95.90;;;;;;5038774;28;20140;-59
2021/10/13 07:12:47;;;;;;;3.90;2.47;;;17.60;95.90;;;;;;5055562;28;20076;-59
2021/10/13 07:15:15;;;;;;;5.18;2.53;;;17.60;95.90;;;;;;5055237;28;20037;-59
2021/10/13 07:17:43;;;;;;;8.48;2.65;;;17.60;95.90;;;;;;5055477;28;20053;-59
2021/10/13 07:20:11;;;;;;;7.18;3.10;;;17.70;95.90;;;;;;5055351;28;20143;-61
2021/10/13 07:22:39;;;;;;;3.28;2.20;;;17.90;95.80;;;;;;5055248;28;20048;-59
2021/10/13 07:25:08;;;;;;;4.25;2.58;;;18.20;95.60;;;;;;5055338;28;20391;-59
2021/10/13 07:27:37;;;;;;;6.30;3.50;;;18.40;95.40;;;;;;5038716;28;20052;-59
2021/10/13 07:30:06;;;;;;;5.80;2.70;;;18.50;95.00;;;;;;5022369;28;20049;-59
2021/10/13 07:32:35;;;;;;;7.78;3.85;;;18.60;94.80;;;;;;5054977;28;20120;-59
2021/10/13 07:35:17;;;;;;;5.32;2.40;;;18.70;94.70;;;;;;5040812;28;20064;-59
2021/10/13 07:37:45;;;;;;;3.10;2.33;;;18.70;94.70;;;;;;5038556;28;20043;-59
2021/10/13 07:40:13;;;;;;;3.70;2.03;;;18.80;94.80;;;;;;5054791;28;20095;-59
2021/10/13 07:42:41;;;;;;;7.30;3.20;;;18.90;94.80;;;;;;5054870;28;20052;-59
2021/10/13 07:45:09;;;;;;;7.30;3.22;;;18.80;94.70;;;;;;5038335;28;20398;-60
2021/10/13 07:47:37;;;;;;;5.68;3.25;;;18.80;94.80;;;;;;5038211;28;20073;-59
2021/10/13 07:50:06;;;;;;;8.07;3.05;;;18.70;95.20;;;;;;5054728;28;20045;-59
2021/10/13 07:52:34;;;;;;;6.65;3.72;;;18.70;95.40;;;;;;5054756;28;20106;-59
2021/10/13 07:55:02;;;;;;;6.45;3.42;;;18.70;95.40;;;;;;5038081;28;20041;-60
2021/10/13 07:57:29;;;;;;;4.70;3.10;;;18.80;95.30;;;;;;5054644;28;20503;-59
2021/10/13 07:59:57;;;;;;;6.35;3.13;;;19.00;95.50;;;;;;5054341;28;20087;-59
2021/10/13 08:02:25;;;;;;;5.28;3.63;;;19.20;95.20;;;;;;5037788;28;20045;-59
2021/10/13 08:04:53;;;;;;;7.13;3.78;;;19.50;95.00;;;;;;5051114;28;20045;-61
2021/10/13 08:07:21;;;;;;;5.03;2.88;;;19.80;94.80;;;;;;5053445;28;20513;-60
2021/10/13 08:09:48;;;;;;;5.55;3.05;;;20.10;94.60;;;;;;5052689;28;20513;-59
2021/10/13 08:12:16;;;;;;;6.07;3.13;;;20.30;94.20;;;;;;5043520;28;20445;-65
2021/10/13 08:14:44;;;;;;;5.22;3.20;;;20.50;94.10;;;;;;5052245;28;20041;-60
2021/10/13 08:17:12;;;;;;;5.85;2.80;;;20.60;94.00;;;;;;5035007;28;20045;-60
2021/10/13 08:19:39;;;;;;;4.25;3.00;;;20.60;93.90;;;;;;5050718;28;20131;-61
2021/10/13 08:22:07;;;;;;;10.35;3.78;;;20.70;93.80;;;;;;5042945;28;20044;-59
2021/10/13 08:24:35;;;;;;;5.50;3.17;;;20.70;93.90;;;;;;5051364;28;20423;-60
2021/10/13 08:27:02;;;;;;;8.35;3.60;;;20.80;93.90;;;;;;5053187;28;20044;-59
2021/10/13 08:29:30;;;;;;;5.90;3.38;;;20.90;93.80;;;;;;5051664;28;20057;-60
2021/10/13 08:31:58;;;;;;;4.32;3.05;;;21.00;93.90;;;;;;5060848;28;20047;-59
2021/10/13 08:34:26;;;;;;;7.25;2.58;;;21.10;93.90;;;;;;5051262;28;20032;-62
2021/10/13 08:36:53;;;;;;;8.27;3.47;;;21.10;93.80;;;;;;5052067;28;20037;-60
2021/10/13 08:39:21;;;;;;;7.20;3.30;;;21.10;93.80;;;;;;5051221;28;20091;-61
2021/10/13 08:41:48;;;;;;;5.32;3.15;;;21.00;93.80;;;;;;5066682;28;20517;-59
2021/10/13 08:44:17;;;;;;;5.22;3.33;;;20.80;93.80;;;;;;5073353;28;20541;-59
2021/10/13 08:46:44;;;;;;;4.93;3.17;;;20.70;94.00;;;;;;5057093;28;20071;-59
2021/10/13 08:49:12;;;;;;;5.07;2.30;;;20.60;94.20;;;;;;5073571;28;20066;-59
2021/10/13 08:51:51;;;;;;;4.32;2.80;;;20.50;94.30;;;;;;5073762;28;20052;-59
2021/10/13 08:54:19;;;;;;;5.13;2.97;;;20.60;94.40;;;;;;5073550;28;20045;-59
2021/10/13 08:56:47;;;;;;;5.38;2.67;;;20.60;94.30;;;;;;5073364;28;20045;-59
2021/10/13 08:59:43;;;;;;;4.45;2.28;;;20.70;94.20;;;;;;5073003;28;20394;-60
2021/10/13 09:02:11;;;;;;;5.15;3.03;;;20.70;94.00;;;;;;5073078;28;20118;-60
2021/10/13 09:05:04;;;;;;;5.43;3.17;;;20.70;93.90;;;;;;5073524;28;20106;-60
2021/10/13 09:07:31;;;;;;;5.78;2.75;;;20.70;93.70;;;;;;5073219;28;20519;-59
2021/10/13 09:09:59;;;;;;;6.07;2.30;;;20.60;93.10;;;;;;5073414;28;20052;-60
2021/10/13 09:12:38;;;;;;;3.40;2.42;;;20.70;93.10;;;;;;5056627;28;20048;-59
2021/10/13 09:15:14;;;;;;;6.53;3.08;;;20.70;93.10;;;;;;5073477;28;20498;-59
2021/10/13 09:17:58;;;;;;;4.18;2.00;;;20.80;92.60;;;;;;5074355;28;20045;-60
2021/10/13 09:20:34;;;;;;;3.33;2.30;;;20.90;92.10;;;;;;5072764;28;20448;-59
2021/10/13 09:23:06;;;;;;;3.97;2.40;;;21.10;91.90;;;;;;5055759;28;20080;-60
2021/10/13 09:25:36;;;;;;;4.63;2.92;;;21.10;91.50;;;;;;5056790;28;20080;-59
2021/10/13 09:28:05;;;;;;;4.97;2.35;;;21.20;91.80;;;;;;5056124;28;20052;-59
2021/10/13 09:30:39;;;;;;;3.78;2.25;;;21.40;92.10;;;;;;5074024;28;20391;-59
2021/10/13 09:33:11;;;;;;;4.88;3.33;;;21.50;92.10;;;;;;5074127;28;20435;-59
2021/10/13 09:35:43;;;;;;;3.67;2.25;;;21.50;91.90;;;;;;5039929;28;20048;-59
2021/10/13 09:38:21;;;;;;;3.53;2.35;;;21.60;91.20;;;;;;5056273;28;20044;-60
2021/10/13 09:40:56;;;;;;;4.28;2.13;;;21.50;90.40;;;;;;5056008;28;20089;-59
2021/10/13 09:43:33;;;;;;;3.05;2.42;;;21.70;90.90;;;;;;5072736;28;20372;-59
2021/10/13 09:46:06;;;;;;;5.03;2.10;;;21.90;91.00;;;;;;5072549;28;20029;-60
2021/10/13 09:48:37;;;;;;;3.60;2.40;;;21.90;90.50;;;;;;5055966;28;20090;-60
2021/10/13 09:51:21;;;;;;;3.42;2.30;;;21.90;90.00;;;;;;5055280;28;20368;-60
2021/10/13 09:53:52;;;;;;;2.95;2.08;;;21.70;89.20;;;;;;5073141;28;20456;-60
2021/10/13 09:56:36;;;;;;;5.25;2.38;;;21.70;89.90;;;;;;5055814;28;20143;-59
2021/10/13 09:59:16;;;;;;;3.33;2.03;;;21.60;90.00;;;;;;5073264;28;20046;-60
2021/10/13 10:01:57;;;;;;;3.75;2.22;;;21.50;90.10;;;;;;5071803;28;20048;-60
2021/10/13 10:04:28;;;;;;;3.05;2.05;;;21.30;90.00;;;;;;5072893;28;20052;-59
2021/10/13 10:06:58;;;;;;;5.78;2.97;;;21.20;89.60;;;;;;5038751;28;20053;-59
2021/10/13 10:09:27;;;;;;;4.10;2.67;;;21.00;90.30;;;;;;5055331;28;20087;-59
2021/10/13 10:12:14;;;;;;;5.30;2.40;;;20.90;90.80;;;;;;5054668;28;20057;-60
2021/10/13 10:14:44;;;;;;;3.25;2.53;;;20.70;91.10;;;;;;5073129;28;20056;-60
2021/10/13 10:17:15;;;;;;;3.65;2.35;;;20.60;91.20;;;;;;5071889;28;20105;-61
2021/10/13 10:19:45;;;;;;;3.47;2.00;;;20.60;91.40;;;;;;5072866;28;20044;-60
2021/10/13 10:22:13;;;;;;;4.35;2.85;;;20.60;91.20;;;;;;5071389;28;20060;-61
2021/10/13 10:24:50;;;;;;;4.50;2.38;;;20.80;91.10;;;;;;5055396;28;20102;-59
2021/10/13 10:27:26;;;;;;;4.25;2.70;;;21.00;91.40;;;;;;5071357;28;20101;-59
2021/10/13 10:30:07;;;;;;;4.90;2.30;;;21.00;92.50;;;;;;5054731;28;20048;-61
2021/10/13 10:32:40;;;;;;;4.47;2.38;;;21.10;93.30;;;;;;5056033;28;20044;-60
2021/10/13 10:35:12;;;;;;;4.18;2.60;;;21.00;93.90;;;;;;5076075;28;20394;-60
2021/10/13 10:37:52;;;;;;;3.97;2.20;;;20.80;94.30;;;;;;5059030;28;20105;-59
2021/10/13 10:40:30;;;;;;;7.20;2.53;;;20.60;94.80;;;;;;5059694;28;20056;-59
2021/10/13 10:43:02;;;;;;;3.60;2.50;;;20.30;95.40;;;;;;5077385;28;20403;-59
2021/10/13 10:45:32;;;;;;;3.35;2.58;;;20.20;95.80;;;;;;5059695;28;20571;-60
2021/10/13 10:48:00;;;;;;;4.05;2.47;;;20.00;96.30;;;;;;5059249;28;20059;-59
2021/10/13 10:50:35;;;;;;;5.55;3.85;;;19.80;96.70;;;;;;5075623;28;20059;-59
2021/10/13 10:53:31;;;;;;;6.78;3.67;;;19.70;97.80;;;;;;5058900;28;20498;-59
2021/10/13 10:56:19;;;;;;;6.18;3.58;;;19.60;99.10;;;;;;5075457;28;20043;-60
2021/10/13 10:59:11;;;;;;;8.00;4.55;;;19.50;99.60;;;;;;5059056;28;20049;-59
2021/10/13 11:01:59;;;;;;;9.20;6.95;;;19.40;99.90;;;;;;5076881;28;20135;-59
2021/10/13 11:04:27;;;;;;;8.50;5.72;;;19.30;99.90;;;;;;5075322;28;20140;-61
2021/10/13 11:07:02;;;;;;;5.10;3.97;;;19.30;99.90;;;;;;5076848;28;20044;-59
2021/10/13 11:09:29;;;;;;;6.07;3.58;;;19.20;99.90;;;;;;5075751;28;20056;-59
2021/10/13 11:11:58;;;;;;;4.72;2.90;;;19.20;99.90;;;;;;5075347;28;20080;-59
2021/10/13 11:14:25;;;;;;;4.60;2.60;;;19.30;99.90;;;;;;5042567;28;20049;-59
2021/10/13 11:16:55;;;;;;;3.58;2.47;;;19.20;99.90;;;;;;5075449;28;20513;-60
2021/10/13 11:19:27;;;;;;;4.55;2.97;;;19.20;99.90;;;;;;5058730;28;20044;-59
2021/10/13 11:21:57;;;;;;;4.43;3.15;;;19.20;99.90;;;;;;5059118;28;20051;-59
2021/10/13 11:24:25;;;;;;;5.75;2.08;;;19.10;99.90;;;;;;5058751;28;20052;-59
2021/10/13 11:26:53;;;;;;;3.53;2.20;;;19.00;98.00;;;;;;5075222;28;20044;-59
2021/10/13 11:29:24;;;;;;;3.67;1.90;;;18.80;96.80;;;;;;5075215;28;20544;-59
2021/10/13 11:32:12;;;;;;;3.30;2.40;;;18.70;96.20;;;;;;5057635;28;20052;-59
2021/10/13 11:34:56;;;;;;;3.00;1.77;;;18.60;96.30;;;;;;5075073;28;20430;-59
2021/10/13 11:37:26;;;;;;;3.88;2.10;;;18.60;96.30;;;;;;5075023;28;20048;-59
2021/10/13 11:39:54;;;;;;;2.70;1.90;;;18.50;96.50;;;;;;5058305;28;20040;-59
2021/10/13 11:42:25;;;;;;;2.65;2.15;;;18.40;96.40;;;;;;5074900;28;20098;-59
2021/10/13 11:44:56;;;;;;;4.13;2.75;;;18.30;96.00;;;;;;5074256;28;20486;-59
2021/10/13 11:47:32;;;;;;;4.45;2.15;;;18.30;95.50;;;;;;5074906;28;20507;-59
2021/10/13 11:50:01;;;;;;;3.28;2.67;;;18.30;95.60;;;;;;5074843;28;20052;-59
2021/10/13 11:52:29;;;;;;;2.90;2.00;;;18.40;95.90;;;;;;5074558;28;20143;-61
2021/10/13 11:55:15;;;;;;;3.90;2.00;;;18.50;96.70;;;;;;5058108;28;20052;-59
2021/10/13 11:57:52;;;;;;;3.88;2.83;;;18.60;97.60;;;;;;5074841;28;20202;-59
2021/10/13 12:00:25;;;;;;;3.72;2.22;;;18.80;97.60;;;;;;5074369;28;20063;-59
2021/10/13 12:03:01;;;;;;;3.80;2.55;;;18.80;97.20;;;;;;5075709;28;20449;-59
2021/10/13 12:05:57;;;;;;;4.20;3.25;;;18.80;97.30;;;;;;5074232;28;20102;-59
2021/10/13 12:08:28;;;;;;;3.38;2.20;;;19.00;97.50;;;;;;5075734;28;20151;-59
2021/10/13 12:11:09;;;;;;;4.93;2.60;;;19.10;97.50;;;;;;5041145;28;20104;-59
2021/10/13 12:13:39;;;;;;;7.10;3.28;;;19.10;97.10;;;;;;5057795;28;20056;-59
2021/10/13 12:16:10;;;;;;;4.57;3.10;;;19.10;96.70;;;;;;5074381;28;20051;-60
2021/10/13 12:18:42;;;;;;;3.05;2.22;;;19.20;96.30;;;;;;5074471;28;20040;-59
2021/10/13 12:21:16;;;;;;;5.40;2.70;;;19.30;96.30;;;;;;5073859;28;20486;-60
2021/10/13 12:23:47;;;;;;;4.45;1.95;;;19.40;96.30;;;;;;5075009;28;20567;-59
2021/10/13 12:26:25;;;;;;;3.50;2.15;;;19.50;96.00;;;;;;5073769;28;20044;-59
2021/10/13 12:28:55;;;;;;;4.57;2.22;;;19.50;96.00;;;;;;5040845;28;20570;-59
2021/10/13 12:31:26;;;;;;;2.92;2.08;;;19.40;95.60;;;;;;5074026;28;20048;-59
2021/10/13 12:34:24;;;;;;;3.85;2.08;;;19.40;95.40;;;;;;5073854;28;20375;-59
2021/10/13 12:36:59;;;;;;;2.90;1.90;;;19.40;95.30;;;;;;5061984;28;20056;-59
2021/10/13 12:39:33;;;;;;;3.00;1.80;;;19.40;95.20;;;;;;5056799;28;20536;-59
2021/10/13 12:42:06;;;;;;;3.17;2.08;;;19.40;95.20;;;;;;5074931;28;20090;-60
2021/10/13 12:44:35;;;;;;;3.13;2.33;;;19.30;95.30;;;;;;5073513;28;20036;-60
2021/10/13 12:47:15;;;;;;;3.20;2.30;;;19.30;94.90;;;;;;5074556;28;20098;-59
2021/10/13 12:49:45;;;;;;;3.33;2.20;;;19.30;94.90;;;;;;5074718;28;20052;-59
2021/10/13 12:52:14;;;;;;;2.97;1.88;;;19.30;94.80;;;;;;5073511;28;20076;-60
2021/10/13 12:54:47;;;;;;;3.78;1.85;;;19.30;94.70;;;;;;5073313;28;20052;-60
2021/10/13 12:57:20;;;;;;;2.70;1.88;;;19.30;94.80;;;;;;5073326;28;20041;-59
2021/10/13 12:59:49;;;;;;;3.03;2.00;;;19.20;94.50;;;;;;5056530;28;20045;-61
2021/10/13 13:02:17;;;;;;;4.05;2.33;;;19.10;94.40;;;;;;5073122;28;20090;-59
2021/10/13 13:04:47;;;;;;;2.72;1.73;;;19.10;94.70;;;;;;5073196;28;20037;-59
2021/10/13 13:07:15;;;;;;;3.58;2.08;;;19.10;94.70;;;;;;5055978;28;20048;-60
2021/10/13 13:09:47;;;;;;;2.67;1.85;;;19.00;94.60;;;;;;5072278;28;20040;-61